createdAt,value
2023-11-29T00:01:07.581Z,70.42
2023-11-29T00:03:34.038Z,70.72
2023-11-29T00:06:00.620Z,70.65
2023-11-29T00:08:27.301Z,70.70
2023-11-29T00:10:53.947Z,70.76
2023-11-29T00:13:21.289Z,70.77
2023-11-29T00:15:48.575Z,70.79
2023-11-29T00:18:15.863Z,70.71
2023-11-29T00:20:42.638Z,71.10
2023-11-29T00:23:09.468Z,71.00
2023-11-29T00:25:35.933Z,70.99
2023-11-29T00:28:02.856Z,71.09
2023-11-29T00:30:30.432Z,71.02
2023-11-29T00:32:57.903Z,71.15
2023-11-29T00:35:25.483Z,71.16
2023-11-29T00:37:52.113Z,71.02
2023-11-29T00:40:19.105Z,71.28
2023-11-29T00:42:45.890Z,71.36
2023-11-29T00:45:12.662Z,71.27
2023-11-29T00:47:39.574Z,71.18
2023-11-29T00:50:07.215Z,71.34
2023-11-29T00:52:33.757Z,71.16
2023-11-29T00:55:00.267Z,71.26
2023-11-29T00:57:26.849Z,71.29
2023-11-29T00:59:53.427Z,71.43
2023-11-29T01:02:20.081Z,71.57
2023-11-29T01:04:46.702Z,71.35
2023-11-29T01:07:13.380Z,71.47
2023-11-29T01:09:39.835Z,71.42
2023-11-29T01:12:06.531Z,71.49
2023-11-29T01:14:33.076Z,71.40
2023-11-29T01:16:59.652Z,71.43
2023-11-29T01:19:26.191Z,71.34
2023-11-29T01:21:52.692Z,71.50
2023-11-29T01:24:19.458Z,71.45
2023-11-29T01:26:46.062Z,71.52
2023-11-29T01:29:12.821Z,71.62
2023-11-29T01:31:39.404Z,71.65
2023-11-29T01:34:05.977Z,71.37
2023-11-29T01:36:33.673Z,71.52
2023-11-29T01:39:00.241Z,71.31
2023-11-29T01:41:27.508Z,71.52
2023-11-29T01:43:55.941Z,71.40
2023-11-29T01:46:22.540Z,71.50
2023-11-29T01:48:49.098Z,71.39
2023-11-29T01:51:15.778Z,71.46
2023-11-29T01:53:43.915Z,71.62
2023-11-29T01:56:10.886Z,71.46
2023-11-29T01:58:37.827Z,71.48
2023-11-29T02:01:04.373Z,71.46
2023-11-29T02:03:31.371Z,71.84
2023-11-29T02:05:58.456Z,71.43
2023-11-29T02:08:25.581Z,71.45
2023-11-29T02:10:52.213Z,71.47
2023-11-29T02:13:19.081Z,71.49
2023-11-29T02:15:46.202Z,71.59
2023-11-29T02:18:14.641Z,71.68
2023-11-29T02:20:41.432Z,71.62
2023-11-29T02:23:25.959Z,71.42
2023-11-29T02:25:52.487Z,71.51
2023-11-29T02:28:19.065Z,71.53
2023-11-29T02:30:45.804Z,71.63
2023-11-29T02:33:12.437Z,71.52
2023-11-29T02:35:39.107Z,71.62
2023-11-29T02:38:05.541Z,71.55
2023-11-29T02:40:32.933Z,71.61
2023-11-29T02:43:01.338Z,71.72
2023-11-29T02:45:28.387Z,71.65
2023-11-29T02:47:55.894Z,71.63
2023-11-29T02:50:22.515Z,71.68
2023-11-29T02:52:49.488Z,71.68
2023-11-29T02:55:16.034Z,71.72
2023-11-29T02:57:42.598Z,71.66
2023-11-29T03:00:10.447Z,71.73
2023-11-29T03:02:37.122Z,71.67
2023-11-29T03:05:03.923Z,71.59
2023-11-29T03:07:31.411Z,71.63
2023-11-29T03:09:57.881Z,71.69
2023-11-29T03:12:24.366Z,71.58
2023-11-29T03:14:51.002Z,71.72
2023-11-29T03:17:17.647Z,71.64
2023-11-29T03:19:44.146Z,71.71
2023-11-29T03:22:10.574Z,71.80
2023-11-29T03:24:37.073Z,71.71
2023-11-29T03:27:03.626Z,71.84
2023-11-29T03:29:30.147Z,71.69
2023-11-29T03:31:57.215Z,71.65
2023-11-29T03:34:24.643Z,71.97
2023-11-29T03:36:51.227Z,71.89
2023-11-29T03:39:17.700Z,71.82
2023-11-29T03:41:44.269Z,71.78
2023-11-29T03:44:10.882Z,71.82
2023-11-29T03:46:37.404Z,71.67
2023-11-29T03:49:04.649Z,71.80
2023-11-29T03:51:38.055Z,71.91
2023-11-29T03:54:08.527Z,71.92
2023-11-29T03:56:35.096Z,71.95
2023-11-29T03:59:01.608Z,71.88
2023-11-29T04:01:33.260Z,71.91
2023-11-29T04:03:59.940Z,71.76
2023-11-29T04:06:27.783Z,71.77
2023-11-29T04:08:55.556Z,71.95
2023-11-29T04:11:24.237Z,71.70
2023-11-29T04:13:51.029Z,71.82
2023-11-29T04:16:21.631Z,71.89
2023-11-29T04:18:49.364Z,71.73
2023-11-29T04:21:28.418Z,71.78
2023-11-29T04:23:56.459Z,71.95
2023-11-29T04:26:27.944Z,71.87
2023-11-29T04:28:56.801Z,71.87
2023-11-29T04:31:24.926Z,71.71
2023-11-29T04:33:51.585Z,72.00
2023-11-29T04:36:18.347Z,72.04
2023-11-29T04:38:45.959Z,71.92
2023-11-29T04:41:12.609Z,71.83
2023-11-29T04:43:39.147Z,71.90
2023-11-29T04:46:05.693Z,71.98
2023-11-29T04:48:32.257Z,71.72
2023-11-29T04:50:58.751Z,71.86
2023-11-29T04:53:25.386Z,71.73
2023-11-29T04:55:53.807Z,71.84
2023-11-29T04:58:23.092Z,71.68
2023-11-29T05:00:49.902Z,71.88
2023-11-29T05:03:16.868Z,71.94
2023-11-29T05:05:43.867Z,71.89
2023-11-29T05:08:10.650Z,72.05
2023-11-29T05:10:38.223Z,71.83
2023-11-29T05:13:05.289Z,71.80
2023-11-29T05:15:34.289Z,71.96
2023-11-29T05:18:05.406Z,72.09
2023-11-29T05:20:32.295Z,71.78
2023-11-29T05:22:58.965Z,72.24
2023-11-29T05:25:26.128Z,71.94
2023-11-29T05:27:52.640Z,72.04
2023-11-29T05:30:19.539Z,71.98
2023-11-29T05:32:47.224Z,71.84
2023-11-29T05:35:14.683Z,71.94
2023-11-29T05:37:42.238Z,71.83
2023-11-29T05:40:09.664Z,71.96
2023-11-29T05:42:36.899Z,71.78
2023-11-29T05:45:04.950Z,71.90
2023-11-29T05:47:31.895Z,72.14
2023-11-29T05:50:00.991Z,71.87
2023-11-29T05:52:27.910Z,71.82
2023-11-29T05:54:54.504Z,71.96
2023-11-29T05:57:21.013Z,72.18
2023-11-29T05:59:48.026Z,71.94
2023-11-29T06:02:15.580Z,72.18
2023-11-29T06:04:42.194Z,72.15
2023-11-29T06:07:08.711Z,72.04
2023-11-29T06:09:37.814Z,72.05
2023-11-29T06:12:04.858Z,72.05
2023-11-29T06:14:31.420Z,71.78
2023-11-29T06:16:57.947Z,71.92
2023-11-29T06:19:24.444Z,72.10
2023-11-29T06:21:50.960Z,72.21
2023-11-29T06:24:18.628Z,72.00
2023-11-29T06:26:46.404Z,71.99
2023-11-29T06:29:13.147Z,71.84
2023-11-29T06:31:39.675Z,72.04
2023-11-29T06:34:08.827Z,71.84
2023-11-29T06:36:38.313Z,71.87
2023-11-29T06:39:05.243Z,72.03
2023-11-29T06:41:31.933Z,71.93
2023-11-29T06:43:58.807Z,71.89
2023-11-29T06:46:25.355Z,72.12
2023-11-29T06:48:51.888Z,72.08
2023-11-29T06:51:18.357Z,72.01
2023-11-29T06:53:44.923Z,72.01
2023-11-29T06:56:11.775Z,71.97
2023-11-29T06:58:39.236Z,71.89
2023-11-29T07:01:08.510Z,72.12
2023-11-29T07:03:35.145Z,72.04
2023-11-29T07:06:02.150Z,72.06
2023-11-29T07:08:29.141Z,71.99
2023-11-29T07:10:55.731Z,71.90
2023-11-29T07:13:22.220Z,71.93
2023-11-29T07:15:48.817Z,72.09
2023-11-29T07:18:15.454Z,71.92
2023-11-29T07:20:46.171Z,72.00
2023-11-29T07:23:13.796Z,72.14
2023-11-29T07:25:40.466Z,72.14
2023-11-29T07:28:06.945Z,72.21
2023-11-29T07:30:33.521Z,72.15
2023-11-29T07:33:00.146Z,72.14
2023-11-29T07:35:27.203Z,71.95
2023-11-29T07:37:53.740Z,72.04
2023-11-29T07:40:22.287Z,71.97
2023-11-29T07:42:50.214Z,72.09
2023-11-29T07:45:16.917Z,72.05
2023-11-29T07:47:44.741Z,72.14
2023-11-29T07:50:15.652Z,71.98
2023-11-29T07:52:42.587Z,72.06
2023-11-29T07:55:09.689Z,72.16
2023-11-29T07:57:36.170Z,72.02
2023-11-29T08:00:05.169Z,72.14
2023-11-29T08:02:38.808Z,72.28
2023-11-29T08:05:05.708Z,72.03
2023-11-29T08:07:34.112Z,72.15
2023-11-29T08:10:02.886Z,71.96
2023-11-29T08:12:30.181Z,71.95
2023-11-29T08:14:56.739Z,71.97
2023-11-29T08:17:23.369Z,72.02
2023-11-29T08:19:50.016Z,71.94
2023-11-29T08:22:16.542Z,72.21
2023-11-29T08:24:43.117Z,72.22
2023-11-29T08:27:10.472Z,72.22
2023-11-29T08:29:37.916Z,72.14
2023-11-29T08:32:04.794Z,72.15
2023-11-29T08:34:31.279Z,71.97
2023-11-29T08:36:57.764Z,72.10
2023-11-29T08:39:24.277Z,72.06
2023-11-29T08:41:50.881Z,71.97
2023-11-29T08:44:17.517Z,71.98
2023-11-29T08:46:44.630Z,72.33
2023-11-29T08:49:11.320Z,72.29
2023-11-29T08:51:37.919Z,72.53
2023-11-29T08:54:04.850Z,72.38
2023-11-29T08:56:31.327Z,72.10
2023-11-29T08:58:57.917Z,72.32
2023-11-29T09:01:24.512Z,72.48
2023-11-29T09:03:51.477Z,72.15
2023-11-29T09:06:18.371Z,72.32
2023-11-29T09:08:45.761Z,72.62
2023-11-29T09:11:12.941Z,72.44
2023-11-29T09:13:40.168Z,72.54
2023-11-29T09:16:08.378Z,72.46
2023-11-29T09:18:35.505Z,72.53
2023-11-29T09:21:03.868Z,72.38
2023-11-29T09:23:30.584Z,72.52
2023-11-29T09:25:57.154Z,72.48
2023-11-29T09:28:23.626Z,72.30
2023-11-29T09:30:50.163Z,72.38
2023-11-29T09:33:16.894Z,72.60
2023-11-29T09:35:44.229Z,72.58
2023-11-29T09:38:11.796Z,72.49
2023-11-29T09:40:38.384Z,72.41
2023-11-29T09:43:07.167Z,72.51
2023-11-29T09:45:33.908Z,72.42
2023-11-29T09:48:01.550Z,72.43
2023-11-29T09:50:28.972Z,72.38
2023-11-29T09:52:56.460Z,72.36
2023-11-29T09:55:23.014Z,72.39
2023-11-29T09:57:49.681Z,72.55
2023-11-29T10:00:17.999Z,72.52
2023-11-29T10:02:44.804Z,72.67
2023-11-29T10:05:18.798Z,72.71
2023-11-29T10:07:46.485Z,72.57
2023-11-29T10:10:14.069Z,72.64
2023-11-29T10:12:45.451Z,72.50
2023-11-29T10:15:12.916Z,72.80
2023-11-29T10:17:43.242Z,72.53
2023-11-29T10:20:12.884Z,72.66
2023-11-29T10:22:39.514Z,72.54
2023-11-29T10:25:19.196Z,72.52
2023-11-29T10:27:46.704Z,72.42
2023-11-29T10:30:14.598Z,72.52
2023-11-29T10:32:42.654Z,72.50
2023-11-29T10:35:14.500Z,72.42
2023-11-29T10:37:45.936Z,72.51
2023-11-29T10:40:15.544Z,72.61
2023-11-29T10:42:51.277Z,72.33
2023-11-29T10:45:21.961Z,72.58
2023-11-29T10:47:59.689Z,72.37
2023-11-29T10:50:29.074Z,72.50
2023-11-29T10:52:55.664Z,72.25
2023-11-29T10:55:23.819Z,72.39
2023-11-29T10:57:58.268Z,72.59
2023-11-29T11:00:30.092Z,72.32
2023-11-29T11:02:57.092Z,72.48
2023-11-29T11:05:25.244Z,72.27
2023-11-29T11:07:53.467Z,72.33
2023-11-29T11:10:27.027Z,72.34
2023-11-29T11:12:56.905Z,72.39
2023-11-29T11:15:29.329Z,72.36
2023-11-29T11:18:01.807Z,72.29
2023-11-29T11:20:51.429Z,72.31
2023-11-29T11:23:28.289Z,72.66
2023-11-29T11:25:57.658Z,72.19
2023-11-29T11:28:38.498Z,72.48
2023-11-29T11:31:10.171Z,72.57
2023-11-29T11:34:09.291Z,72.44
2023-11-29T11:36:37.270Z,72.39
2023-11-29T11:39:04.361Z,72.58
2023-11-29T11:41:34.593Z,72.23
2023-11-29T11:44:01.062Z,72.22
2023-11-29T11:46:28.649Z,72.52
2023-11-29T11:48:55.438Z,72.22
2023-11-29T11:51:22.331Z,72.34
2023-11-29T11:53:49.014Z,72.35
2023-11-29T11:56:23.132Z,72.05
2023-11-29T11:58:50.796Z,72.28
2023-11-29T12:01:17.271Z,72.23
2023-11-29T12:03:43.966Z,72.23
2023-11-29T12:06:10.991Z,72.32
2023-11-29T12:08:38.720Z,72.13
2023-11-29T12:11:08.603Z,72.32
2023-11-29T12:13:35.861Z,72.51
2023-11-29T12:16:13.221Z,72.35
2023-11-29T12:18:41.016Z,72.50
2023-11-29T12:21:08.322Z,72.45
2023-11-29T12:23:37.691Z,72.48
2023-11-29T12:26:04.856Z,72.53
2023-11-29T12:28:33.558Z,72.55
2023-11-29T12:31:00.649Z,72.44
2023-11-29T12:33:27.364Z,72.32
2023-11-29T12:35:54.096Z,72.46
2023-11-29T12:38:20.769Z,72.57
2023-11-29T12:40:49.228Z,72.51
2023-11-29T12:43:15.866Z,72.39
2023-11-29T12:45:42.476Z,72.45
2023-11-29T12:48:09.012Z,72.41
2023-11-29T12:50:36.355Z,72.55
2023-11-29T12:53:02.889Z,72.74
2023-11-29T12:55:29.430Z,72.58
2023-11-29T12:57:56.510Z,72.65
2023-11-29T13:00:23.131Z,72.71
2023-11-29T13:02:49.853Z,72.36
2023-11-29T13:05:16.473Z,72.77
2023-11-29T13:07:42.928Z,72.75
2023-11-29T13:10:09.744Z,72.55
2023-11-29T13:12:36.917Z,72.50
2023-11-29T13:15:04.805Z,72.49
2023-11-29T13:17:31.873Z,72.56
2023-11-29T13:19:58.389Z,72.61
2023-11-29T13:22:24.928Z,72.73
2023-11-29T13:24:52.112Z,72.63
2023-11-29T13:27:18.715Z,72.48
2023-11-29T13:29:45.369Z,72.53
2023-11-29T13:32:14.387Z,72.76
2023-11-29T13:34:41.728Z,72.43
2023-11-29T13:37:08.975Z,72.72
2023-11-29T13:39:35.642Z,72.68
2023-11-29T13:42:02.229Z,72.60
2023-11-29T13:44:29.699Z,72.48
2023-11-29T13:46:56.976Z,72.57
2023-11-29T13:49:23.922Z,72.62
2023-11-29T13:52:00.998Z,72.37
2023-11-29T13:54:35.773Z,72.45
2023-11-29T13:57:03.015Z,72.74
2023-11-29T13:59:29.679Z,72.73
2023-11-29T14:01:56.419Z,72.49
2023-11-29T14:04:23.314Z,72.57
2023-11-29T14:06:50.025Z,72.66
2023-11-29T14:09:16.478Z,72.46
2023-11-29T14:11:44.427Z,72.66
2023-11-29T14:14:10.956Z,72.30
2023-11-29T14:16:39.748Z,72.60
2023-11-29T14:19:06.440Z,72.60
2023-11-29T14:21:33.111Z,72.45
2023-11-29T14:23:59.695Z,72.29
2023-11-29T14:26:26.256Z,72.30
2023-11-29T14:28:52.740Z,72.35
2023-11-29T14:31:20.032Z,72.66
2023-11-29T14:33:46.700Z,72.44
2023-11-29T14:36:13.622Z,72.36
2023-11-29T14:38:40.277Z,72.19
2023-11-29T14:41:12.011Z,72.26
2023-11-29T14:43:39.315Z,72.50
2023-11-29T14:46:06.129Z,72.22
2023-11-29T14:48:33.716Z,72.51
2023-11-29T14:51:01.707Z,72.20
2023-11-29T14:53:28.210Z,72.36
2023-11-29T14:55:55.048Z,72.34
2023-11-29T14:58:24.819Z,72.25
2023-11-29T15:00:51.346Z,72.37
2023-11-29T15:03:17.862Z,72.27
2023-11-29T15:05:44.485Z,72.49
2023-11-29T15:08:11.632Z,72.51
2023-11-29T15:10:38.228Z,72.26
2023-11-29T15:13:04.724Z,72.23
2023-11-29T15:15:31.210Z,72.60
2023-11-29T15:17:58.979Z,72.55
2023-11-29T15:20:26.554Z,72.57
2023-11-29T15:22:53.041Z,72.35
2023-11-29T15:25:21.324Z,72.55
2023-11-29T15:27:48.496Z,72.38
2023-11-29T15:30:15.807Z,72.64
2023-11-29T15:32:42.523Z,72.53
2023-11-29T15:35:09.278Z,72.76
2023-11-29T15:37:35.906Z,72.66
2023-11-29T15:40:02.406Z,72.36
2023-11-29T15:42:29.612Z,72.42
2023-11-29T15:44:56.332Z,72.57
2023-11-29T15:47:23.294Z,72.39
2023-11-29T15:49:49.905Z,72.39
2023-11-29T15:52:16.913Z,72.52
2023-11-29T15:54:43.435Z,72.62
2023-11-29T15:57:10.185Z,72.47
2023-11-29T15:59:37.024Z,72.30
2023-11-29T16:02:03.741Z,72.37
2023-11-29T16:04:30.543Z,72.64
2023-11-29T16:06:57.033Z,72.48
2023-11-29T16:09:23.572Z,72.36
2023-11-29T16:11:52.484Z,72.26
2023-11-29T16:14:19.212Z,72.40
2023-11-29T16:16:45.766Z,72.31
2023-11-29T16:19:12.355Z,72.29
2023-11-29T16:21:39.710Z,72.27
2023-11-29T16:24:06.455Z,72.28
2023-11-29T16:26:32.964Z,72.49
2023-11-29T16:28:59.755Z,72.55
2023-11-29T16:31:27.803Z,72.66
2023-11-29T16:33:55.086Z,72.44
2023-11-29T16:36:21.842Z,72.40
2023-11-29T16:38:48.371Z,72.22
2023-11-29T16:41:17.009Z,72.30
2023-11-29T16:43:46.328Z,72.24
2023-11-29T16:46:12.955Z,72.29
2023-11-29T16:48:39.755Z,72.37
2023-11-29T16:51:07.113Z,72.15
2023-11-29T16:53:33.912Z,72.28
2023-11-29T16:56:03.354Z,72.23
2023-11-29T16:58:29.784Z,72.12
2023-11-29T17:00:56.290Z,72.17
2023-11-29T17:03:22.953Z,72.36
2023-11-29T17:05:49.686Z,72.28
2023-11-29T17:08:16.280Z,72.07
2023-11-29T17:10:42.785Z,72.12
2023-11-29T17:13:09.271Z,72.13
2023-11-29T17:15:36.863Z,72.08
2023-11-29T17:18:03.648Z,72.04
2023-11-29T17:20:30.795Z,72.16
2023-11-29T17:22:57.256Z,72.04
2023-11-29T17:25:23.933Z,71.74
2023-11-29T17:27:50.473Z,72.13
2023-11-29T17:30:17.061Z,72.16
2023-11-29T17:32:44.387Z,72.09
2023-11-29T17:35:12.253Z,71.96
2023-11-29T17:37:40.670Z,72.16
2023-11-29T17:40:08.546Z,71.99
2023-11-29T17:42:35.122Z,71.95
2023-11-29T17:45:01.815Z,71.85
2023-11-29T17:47:28.369Z,71.93
2023-11-29T17:49:54.807Z,71.99
2023-11-29T17:52:21.361Z,71.98
2023-11-29T17:54:48.269Z,71.88
2023-11-29T17:57:14.770Z,71.84
2023-11-29T17:59:41.226Z,71.76
2023-11-29T18:02:07.908Z,71.63
2023-11-29T18:04:35.425Z,71.65
2023-11-29T18:07:01.957Z,71.61
2023-11-29T18:09:29.174Z,71.82
2023-11-29T18:11:55.715Z,71.52
2023-11-29T18:14:22.282Z,71.61
2023-11-29T18:16:49.038Z,71.49
2023-11-29T18:19:16.677Z,71.41
2023-11-29T18:21:43.240Z,71.25
2023-11-29T18:24:09.913Z,71.40
2023-11-29T18:26:36.403Z,71.48
2023-11-29T18:29:02.894Z,71.32
2023-11-29T18:31:29.469Z,71.42
2023-11-29T18:33:55.954Z,71.47
2023-11-29T18:36:22.440Z,71.20
2023-11-29T18:38:50.523Z,71.48
2023-11-29T18:41:17.199Z,71.36
2023-11-29T18:43:43.696Z,71.41
2023-11-29T18:46:10.703Z,71.16
2023-11-29T18:48:37.442Z,71.36
2023-11-29T18:51:04.264Z,71.43
2023-11-29T18:53:31.610Z,71.40
2023-11-29T18:55:59.531Z,71.05
2023-11-29T18:58:26.066Z,71.07
2023-11-29T19:00:52.510Z,71.03
2023-11-29T19:03:19.237Z,71.24
2023-11-29T19:05:46.753Z,71.24
2023-11-29T19:08:13.593Z,71.15
2023-11-29T19:10:42.079Z,71.11
2023-11-29T19:13:08.741Z,71.04
2023-11-29T19:15:35.336Z,71.14
2023-11-29T19:18:01.940Z,71.02
2023-11-29T19:20:28.498Z,71.28
2023-11-29T19:22:55.054Z,71.07
2023-11-29T19:25:21.597Z,71.14
2023-11-29T19:27:48.154Z,71.12
2023-11-29T19:30:14.916Z,70.92
2023-11-29T19:32:41.533Z,71.10
2023-11-29T19:35:18.306Z,71.04
2023-11-29T19:37:51.940Z,71.00
2023-11-29T19:40:18.454Z,71.23
2023-11-29T19:42:44.949Z,71.17
2023-11-29T19:45:11.729Z,71.03
2023-11-29T19:47:38.630Z,70.97
2023-11-29T19:50:06.254Z,71.02
2023-11-29T19:52:40.962Z,70.96
2023-11-29T19:55:14.324Z,71.03
2023-11-29T19:57:41.011Z,71.01
2023-11-29T20:00:08.163Z,71.12
2023-11-29T20:02:34.739Z,71.08
2023-11-29T20:05:01.753Z,71.03
2023-11-29T20:07:28.328Z,70.93
2023-11-29T20:09:55.009Z,70.89
2023-11-29T20:12:21.601Z,70.92
2023-11-29T20:17:15.876Z,70.89
2023-11-29T20:19:42.478Z,70.74
2023-11-29T20:22:08.978Z,70.94
2023-11-29T20:24:35.556Z,71.06
2023-11-29T20:27:02.166Z,70.95
2023-11-29T20:29:28.638Z,71.01
2023-11-29T20:31:55.107Z,70.91
2023-11-29T20:34:30.661Z,70.96
2023-11-29T20:37:05.970Z,70.99
2023-11-29T20:39:33.595Z,70.92
2023-11-29T20:42:00.574Z,70.98
2023-11-29T20:44:28.365Z,70.93
2023-11-29T20:46:55.123Z,70.85
2023-11-29T20:49:22.241Z,70.92
2023-11-29T20:51:49.110Z,71.05
2023-11-29T20:54:17.065Z,70.88
2023-11-29T20:56:44.168Z,70.95
2023-11-29T20:59:13.253Z,70.88
2023-11-29T21:01:40.271Z,70.78
2023-11-29T21:04:10.008Z,70.98
2023-11-29T21:06:38.148Z,70.85
2023-11-29T21:09:06.144Z,70.90
2023-11-29T21:11:34.995Z,71.00
2023-11-29T21:14:01.453Z,70.90
2023-11-29T21:16:27.999Z,71.04
2023-11-29T21:18:55.203Z,70.86
2023-11-29T21:21:21.916Z,70.93
2023-11-29T21:23:48.502Z,70.93
2023-11-29T21:26:14.990Z,70.95
2023-11-29T21:28:41.509Z,70.91
2023-11-29T21:31:08.058Z,70.87
2023-11-29T21:33:35.270Z,70.99
2023-11-29T21:36:01.964Z,71.01
2023-11-29T21:38:28.577Z,71.16
2023-11-29T21:40:55.366Z,71.07
2023-11-29T21:43:22.072Z,70.99
2023-11-29T21:45:48.592Z,70.93
2023-11-29T21:48:15.229Z,70.94
2023-11-29T21:50:41.880Z,71.11
2023-11-29T21:53:09.081Z,71.02
2023-11-29T21:55:35.884Z,70.79
2023-11-29T21:58:02.398Z,71.02
2023-11-29T22:00:29.411Z,70.93
2023-11-29T22:02:55.971Z,70.92
2023-11-29T22:05:24.370Z,70.97
2023-11-29T22:07:51.317Z,71.01
2023-11-29T22:10:18.265Z,71.00
2023-11-29T22:12:44.769Z,70.97
2023-11-29T22:15:11.356Z,70.78
2023-11-29T22:17:38.061Z,70.96
2023-11-29T22:20:05.096Z,71.01
2023-11-29T22:22:31.526Z,70.65
2023-11-29T22:24:58.099Z,71.04
2023-11-29T22:27:24.578Z,70.91
2023-11-29T22:29:51.208Z,70.97
2023-11-29T22:32:17.700Z,70.79
2023-11-29T22:34:44.188Z,71.14
2023-11-29T22:37:11.636Z,71.06
2023-11-29T22:39:39.672Z,70.79
2023-11-29T22:42:06.236Z,70.91
2023-11-29T22:44:32.764Z,71.05
2023-11-29T22:46:59.278Z,70.99
2023-11-29T22:49:26.273Z,71.02
2023-11-29T22:51:52.853Z,71.05
2023-11-29T22:54:19.489Z,70.82
2023-11-29T22:56:46.060Z,70.84
2023-11-29T22:59:12.513Z,70.89
2023-11-29T23:01:39.176Z,70.80
2023-11-29T23:04:05.813Z,70.82
2023-11-29T23:06:32.972Z,71.14
2023-11-29T23:08:59.939Z,70.77
2023-11-29T23:11:26.513Z,70.96
2023-11-29T23:13:53.221Z,71.07
2023-11-29T23:16:20.139Z,71.15
2023-11-29T23:18:48.051Z,71.05
2023-11-29T23:21:14.788Z,70.94
2023-11-29T23:23:41.447Z,71.22
2023-11-29T23:26:07.922Z,70.94
2023-11-29T23:28:34.795Z,71.13
2023-11-29T23:31:01.804Z,71.09
2023-11-29T23:33:28.973Z,71.11
2023-11-29T23:35:57.147Z,71.15
2023-11-29T23:38:24.008Z,71.16
2023-11-29T23:40:50.542Z,71.09
2023-11-29T23:43:17.116Z,71.30
2023-11-29T23:45:43.601Z,71.20
2023-11-29T23:48:10.814Z,71.40
2023-11-29T23:50:37.425Z,71.10
2023-11-29T23:53:03.902Z,71.02
2023-11-29T23:55:30.696Z,71.12
2023-11-29T23:57:57.526Z,71.11
